Timeline UpdatesTrip UpdatesNews PostsPvt PostsTravel TipsAdmin PostsConv PostsFollowed PostsChat RequestsBlog PostsPNR Posts

Disclaimer
Search
 
 
Thu Jul 24, 2014 03:39:48 ISTHomeTrainsΣChainsAtlasPNRForumGalleryNewsFAQTripsMembersLoginFeedback
No Recent News for this Train
Other Trains in the News **new
Latest...
.
Thu Nov 14, 2013 (06:37PM)
⇐ Return Journey: Train# 19019

19020/Dehradun - Mumbai Bandra Terminus Express

Apr 15 2014 (1:35PM)
Change Departure Station:
Change Arrival Station:
Post a Train Travel TipPost a Train Travel Tip **new
Post a Comment/Question/Picture/VideoPost a Comment/Question/Picture/Video
Pantry/Catering
✕ NO Pantry Car
✓ Catering Avbl
Loco/Rake Reversals
SRE/Saharanpur Junction (6); LRJ/Laksar Junction (4);
RSA - Rake Sharing
Rake/Coach Composition
LOCO-SLR-HCPV-GEN-GEN-AB1-S1-S2-S3-S4-S5-S6-S7-S8-S9-SLR
Loco
GZB WAP-7 NZM-BDTS. ddn to nzm tkd wdp 3a. By Er...
Read more...
Ankit Shotra Bhagat Entry# 595554
News    PNR    Forum    Time-Table    Availability    Fare Chart    Map    Arr/Dep History    Trips    Gallery    ΣChains    X/O    Timeline    
Travel Time: 20h 3m    36 halts    Distance: 760 km    Avg Speed: 37 km/hr
Type: Mail/Express
Zone: WR/Western
Departs @ 10:35 (Avg on time)
Platform# 2
SMTWTFS
Dehradun/DDN 
Arrives @ 06:38 +1 night (Avg 20m late)
Platform# ???
SMTWTFS
Keshorai Patan/KPTN 

36 halts. 112 intermediate Stations between Dehradun and Keshorai Patan

Show ALL intermediate Stations  Show Old Time-Table

#CodeStation NameX/OArrivesAvgDepartsAvgHaltPFDay#KmSpeedElevZoneAddress
1DDN»Dehradun (4)»  -10:35+0210.041648mNRDehradun, Uttarakhand
2DWODoiwala  11:04+411:06+42m--119.839484mNRDehradun, Uttarakhand
3RWLRaiwala Junction (2)X  11:38+411:40+172m2140.520361mNRRishikesh, Uttarakhand
4MOTCMotichur (2)X  12:00+812:02+102m1147.121312mNRHaridwar, Uttarakhand
5HWHaridwar Junction (9)X  12:15+912:45+1130m3151.730294mNRHaridwar, Uttarakhand
6JWPJwalapurX  12:53+1312:55+132m--155.621292mNRHaridwar, Uttarakhand
7LRJLaksar Junction (4)X14:00+414:25+525m--178.659238mNRLaksar, Uttarakhand
8RKRoorkee (3)X  14:43+714:45+92m3196.442264mNRRoorkee - 247667, Uttarakhand
9SRESaharanpur Junction (6)X15:35+216:05+030m41131.146276mNRSaharanpur, Uttar Pradesh
10DBDDeoband (2)  16:50+516:52+72m21165.351258mNRSaharanpur, Uttar Pradesh
11MOZMuzaffarnagar (3)X  17:20+617:22+212m21189.367247mNRMuzaffarNagar, Uttar Pradesh
12KATKhatauli (2)  17:42+2517:44+252m11211.573239mNRKhatauli, Uttar Pradesh
13MUTMeerut Cantt. (2)  18:08+3018:10+302m11240.610230mNRMeerut, Uttar Pradesh
14MTCMeerut City Junction (6)X18:35+1519:20+845m41244.983229mNRMeerut, Uttar Pradesh
15MDNRModinagar (2)X  19:34+1419:36+142m21264.467221mNRGhaziabad, Uttar Pradesh
16MUDMuradnagar (2)  19:45+1519:47+152m21274.547220mNRGhaziabad, Uttar Pradesh
17GZNNew Ghaziabad (2)X  20:02+620:04+62m21286.214213mNRGhaziabad, Uttar Pradesh
18GZBGhaziabad Junction (6)X  20:30+320:32+42m41292.145217mNRGhaziabad, Uttar Pradesh
19SBBSahibabad Junction (5)X  20:41+1020:43+102m--1298.830209mNRGhaziabad, Uttar Pradesh
20NZMDelhi Hazrat Nizamuddin (7)O21:15+1621:55+1240m11314.925209mNRNizamuddin East/Sarai KaleKhan Bus Terminal, Delhi NCT
21TKDTuglakabad (4)XO  22:18+1122:20+142m--1324.628213mNRNear Tughlakabad Metro Station, Delhi NCT
22FDBFaridabad (4)  22:44+822:46+112m31335.740206mNRold Faridabad, Haryana
23BVHBallabgarh (5)O  22:58+923:00+102m--1343.735203mNRFaridabad, Haryana
24PWLPalwal (8)X  23:36+023:38+22m--1364.985200mNRPalwal, Haryana
25KSVKosi Kalan (3)O  00:08+1800:10+192m22407.429189mNCRKosi Kalan, Uttar Pradesh
26MTJMathura Junction (10)X  01:35-201:45+110m32448.880179mNCRMathura, Uttar Pradesh
27BTEBharatpur Junction (5)  02:10+702:15+65m--2482.484174mWCRBharatpur, Rajasthan
28BXNBayana Junction (3)XO  02:45+902:47+112m--2524.374198mWCRBayana, Rajasthan
29FSPFateh SinghpuraO  03:03+1203:05+132m--2544.079223mWCRState Highway 1, Rajasthan
30HANHindaun City (2)  03:15+1603:17+182m--2557.268230mWCRKarauli, Rajasthan
31SMBJShri Mahabirji (3)O  03:26+1903:28+192m--2567.449240mWCRKarauli, Rajasthan
32GGCGangapur City (3)  04:10+604:20+710m--2601.564270mWCRGangapur, Rajasthan
33NNWNarayanpur Tatwara (2)X  04:36+804:38+82m--2618.484256mWCRSawai Madhopur, Rajasthan
34MLZMalarnaX  04:50+1004:52+112m--2635.265236mWCRSawai Madhopur, Rajasthan
35SWMSawai Madhopur Junction (4)XO  05:20+1005:25+105m--2665.495266mWCRSawai Madhopur, Rajasthan
36IDGIndargarh Sumerganj Mandi (2)X  05:48+1605:50+182m--2701.782247mWCRIndargarh, Rajasthan
37LKELakheri (3)  05:58+2006:00+202m--2712.774228mWCRBundi, Rajasthan
38KPTN•Keshorai Patan•X  06:38+2006:40+232m--2759.760243mWCRSH 33, Rajasthan
39GQLGurla  06:48+2706:50+302m--2767.78251mWCRSH 33, Rajasthan
40KOTAKota Junction (5)X07:30+807:50+1320m22773.151256mWCRKota, Rajasthan
41DKNTDakaniya Talav (2)  08:01+2008:03+222m22782.485278mWCRKota, Rajasthan
42DARADaraX  08:30+2608:32+272m--2820.655354mWCRDara, Rajasthan
43MKXMorak (2)X  08:48+2708:50+272m--2835.342337mWCRMorak, Rajasthan
44RMARamganj Mandi Junction (3)  09:03+2509:05+282m--2844.457358mWCRRamganj Mandi, Rajasthan
45JHWJhalawar Road (3)  09:18+2609:20+262m--2856.755361mWCRJhalawar City, Rajasthan
46BWMBhawani Mandi (3)X  09:38+2309:40+292m--2873.276384mWCRBhawani Mandi, Madhya Pradesh
47GOHGaroth (2)X  09:58+3010:00+302m12895.926441mWCRMadhya Pradesh 458880, Madhya Pradesh
48SGZShamgarh (3)X  10:25+1710:30+215m--2906.767463mWCRMandsaur, Madhya Pradesh
49SVASuwasra (2)  10:42+2410:44+252m--2920.166450mWCRSuwasra, Madhya Pradesh
50CMUChau Mahla (3)  10:58+2611:00+272m12935.535426mWCRJhalawar, Rajasthan
51THURThuriaX  11:24+1611:26+172m--2949.721430mWCRMDR 45, Madhya Pradesh
52VMAVikramgarh Alot (2)X  11:48+611:50+122m12957.361443mWCRKota Division, Madhya Pradesh
53LNRLuni Richha  12:03+1112:05+112m--2970.628471mWCRAlote, Madhya Pradesh
54MEPMahidpur Road  12:28+012:30+32m--2981.229493mWCRGogapur, Madhya Pradesh
55NADNagda Junction (4)  13:05+113:15+310m--2998.375468mWRNagda, Madhya Pradesh
56KUHKhachrod (2)  13:26+913:28+92m--21012.157497mWRUjjain, Madhya Pradesh
57RNHRunkheraX  13:39+713:41+72m--21022.563478mWRUjjain, Madhya Pradesh
58BODBangrodX  13:48+813:50+72m--21029.924484mWRRatlam, Madhya Pradesh
59RTMRatlam Junction (7)X  14:15+614:35+1120m421039.777495mWRRatlam, Madhya Pradesh
60RTIRaoti (2)  14:56+2114:58+222m--21066.671409mWRState Highway 39A, Madhya Pradesh
61BOGBhairongarh (2)  15:08+2315:10+232m--21078.551374mWRBhairongarh Railway Station, Madhya Pradesh
62BMIBamnia (2)  15:17+2515:19+242m--21084.542392mWRBamnia, Madhya Pradesh
63AGRAmargarh (2)  15:25+2415:27+232m--21088.657410mWRSH 39A, Madhya Pradesh
64PCNPanch Pipila (2)  15:37+2315:39+222m--21098.184369mWRSH 39A, Madhya Pradesh
65THDRThandla Road (2)  15:49+2515:51+252m--21112.060317mWRJhabua, Madhya Pradesh
66MGNMeghnagar (3)  15:59+2516:01+262m--21120.073317mWRJhabua, Madhya Pradesh
67ANASAnas (2)  16:13+2616:15+262m--21134.679288mWRMadhya Pradesh 389154 ?, Madhya Pradesh
68BIOBordi (2)  16:21+2816:23+272m--21142.553289mWRNational Highway 59, Gujarat
69DHDDahod (3)  16:35+2916:40+305m--21153.176313mWRDahod, Gujarat
70LMKLimkheda  17:06+3417:08+332m--21186.168205mWRLimkheda, Gujarat
71PPDPiplod Junction  17:15+3417:17+332m--21194.079209mWRPiplod, Gujarat
72SATSant Road (2)X  17:26+3417:28+332m221205.920169mWROrwara, Gujarat
73GDAGodhra Junction (3)X  18:30+718:35+95m1021226.265122mWRGodhra, Gujarat
74KRSAKharsaliya (2)  18:45+1218:47+122m--21237.185107mWRPanchmahal, Gujarat
75DRLDerolX  18:56+1318:58+132m121249.86881mWRKalol, Gujarat
76CPNChampaner Road JunctionX  19:09+1419:11+142m--21262.37578mWRPanchmahal, Gujarat
77SMLASamlaya Junction (3)X  19:20+1319:22+132m--21273.54867mWRVadodara, Gujarat
78BRCVadodara Junction (7)  19:55+2020:05+2210m321300.18936mWRVadodara 390005, Gujarat
79MYGMiyagam Karjan (2)  20:25+2820:27+272m--21329.97229mWRKarjan, Gujarat
80BHBharuch Junction (5)  21:01+2821:03+272m421370.66219mWRBharuch, Gujarat
81AKVAnkleshwar Junction (4)X  21:12+2821:14+282m221380.07419mWRAnkleshwar, Gujarat
82KSBKosamba Junction (3)X21:29+3021:31+252m--21398.53230mWRKosamba, Gujarat
83STSurat (4)X  22:30+1422:38+148m221429.97119mWRSurat 395001, Gujarat
84NVSNavsari (3)  23:03+2223:05+222m--21459.57914mWRNavsari, Gujarat
85BIMBilimora Junction (4)X  23:21+2923:23+292m--21480.73611mWRBilimora, Gujarat
86BLValsad (3)  23:53+2223:55+272m321498.63815mWRValsad, Gujarat
87VAPIVapi (3)X  00:36+1400:38+162m--31524.95727mWRVapi, Gujarat
88PLGPalghar (3)  02:04+1602:06+192m--31606.43719mWRPalghar, Maharashtra
89VRVirar (8)  02:56+602:58+82m--31637.5486mWRThane, Maharashtra
90BVIMumbai Borivali (8)  03:30+403:32+72m531663.32319mWRMumbai - 400092, Maharashtra
91BDTSMumbai Bandra Terminus (5)  04:20+2-131682.1-4mWRMumbai 400050, Maharashtra
Scroll to Top
Scroll to Bottom